Terminal Aerodrome Forecast
Issued by NWS

Home | Current Version | Previous Version | Text Only | Print | Product List | Glossary On
Versions: 1 2 3 4 5 6 7 8 9 10 11 12 13
381
FTUS42 TJSJ 280541
TAFISX
TAF
TISX 280541Z 2806/2906 07004KT P6SM FEW020
     FM281400 13012KT P6SM SCT030
     FM281700 14012KT P6SM VCTS SCT025 SCT040CB
     FM282200 06006KT P6SM VCSH SCT022 SCT045=

USA.gov is the U.S. government's official web portal to all federal, state and local government web resources and services.